sensor_id;sensor_type;location;lat;lon;timestamp;P1;durP1;ratioP1;P2;durP2;ratioP2
78324;SDS011;67584;51.400;6.692;2023-04-23T00:01:27;63.05;;;27.80;;
78324;SDS011;67584;51.400;6.692;2023-04-23T00:03:54;62.10;;;28.08;;
78324;SDS011;67584;51.400;6.692;2023-04-23T00:06:22;60.08;;;27.08;;
78324;SDS011;67584;51.400;6.692;2023-04-23T00:08:50;67.90;;;27.40;;
78324;SDS011;67584;51.400;6.692;2023-04-23T00:11:18;64.85;;;27.55;;
78324;SDS011;67584;51.400;6.692;2023-04-23T00:13:45;60.17;;;27.95;;
78324;SDS011;67584;51.400;6.692;2023-04-23T00:16:13;63.28;;;26.70;;
78324;SDS011;67584;51.400;6.692;2023-04-23T00:18:39;57.70;;;28.77;;
78324;SDS011;67584;51.400;6.692;2023-04-23T00:21:05;55.67;;;26.65;;
78324;SDS011;67584;51.400;6.692;2023-04-23T00:23:33;63.90;;;25.98;;
78324;SDS011;67584;51.400;6.692;2023-04-23T00:25:58;62.58;;;28.00;;
78324;SDS011;67584;51.400;6.692;2023-04-23T00:28:24;62.28;;;27.25;;
78324;SDS011;67584;51.400;6.692;2023-04-23T00:30:50;67.28;;;28.38;;
78324;SDS011;67584;51.400;6.692;2023-04-23T00:33:16;57.90;;;25.95;;
78324;SDS011;67584;51.400;6.692;2023-04-23T00:35:41;64.28;;;25.60;;
78324;SDS011;67584;51.400;6.692;2023-04-23T00:38:07;66.38;;;27.45;;
78324;SDS011;67584;51.400;6.692;2023-04-23T00:40:33;56.70;;;26.13;;
78324;SDS011;67584;51.400;6.692;2023-04-23T00:43:00;64.05;;;27.95;;
78324;SDS011;67584;51.400;6.692;2023-04-23T00:45:26;57.15;;;26.75;;
78324;SDS011;67584;51.400;6.692;2023-04-23T00:47:52;60.33;;;27.58;;
78324;SDS011;67584;51.400;6.692;2023-04-23T00:50:18;56.92;;;25.85;;
78324;SDS011;67584;51.400;6.692;2023-04-23T00:52:45;53.33;;;25.95;;
78324;SDS011;67584;51.400;6.692;2023-04-23T00:55:10;53.67;;;25.60;;
78324;SDS011;67584;51.400;6.692;2023-04-23T00:57:36;51.00;;;24.27;;
78324;SDS011;67584;51.400;6.692;2023-04-23T01:00:03;48.63;;;23.38;;
78324;SDS011;67584;51.400;6.692;2023-04-23T01:02:30;54.00;;;24.20;;
78324;SDS011;67584;51.400;6.692;2023-04-23T01:04:56;52.20;;;24.23;;
78324;SDS011;67584;51.400;6.692;2023-04-23T01:07:24;48.95;;;22.92;;
78324;SDS011;67584;51.400;6.692;2023-04-23T01:09:51;50.67;;;23.65;;
78324;SDS011;67584;51.400;6.692;2023-04-23T01:12:17;49.75;;;23.92;;
78324;SDS011;67584;51.400;6.692;2023-04-23T01:14:43;50.97;;;23.33;;
78324;SDS011;67584;51.400;6.692;2023-04-23T01:17:09;49.92;;;22.83;;
78324;SDS011;67584;51.400;6.692;2023-04-23T01:19:36;48.97;;;23.70;;
78324;SDS011;67584;51.400;6.692;2023-04-23T01:22:02;48.20;;;25.15;;
78324;SDS011;67584;51.400;6.692;2023-04-23T01:24:33;50.28;;;22.77;;
78324;SDS011;67584;51.400;6.692;2023-04-23T01:26:59;47.55;;;23.60;;
78324;SDS011;67584;51.400;6.692;2023-04-23T01:29:26;46.40;;;21.95;;
78324;SDS011;67584;51.400;6.692;2023-04-23T01:31:52;41.10;;;21.75;;
78324;SDS011;67584;51.400;6.692;2023-04-23T01:34:18;45.95;;;22.90;;
78324;SDS011;67584;51.400;6.692;2023-04-23T01:36:45;42.08;;;21.38;;
78324;SDS011;67584;51.400;6.692;2023-04-23T01:39:12;42.97;;;22.17;;
78324;SDS011;67584;51.400;6.692;2023-04-23T01:41:38;44.50;;;22.60;;
78324;SDS011;67584;51.400;6.692;2023-04-23T01:44:04;45.80;;;22.77;;
78324;SDS011;67584;51.400;6.692;2023-04-23T01:46:30;44.75;;;23.45;;
78324;SDS011;67584;51.400;6.692;2023-04-23T01:48:56;45.63;;;22.30;;
78324;SDS011;67584;51.400;6.692;2023-04-23T01:51:22;41.15;;;21.52;;
78324;SDS011;67584;51.400;6.692;2023-04-23T01:53:49;38.45;;;21.02;;
78324;SDS011;67584;51.400;6.692;2023-04-23T01:56:15;44.03;;;20.63;;
78324;SDS011;67584;51.400;6.692;2023-04-23T01:58:45;37.92;;;19.92;;
78324;SDS011;67584;51.400;6.692;2023-04-23T02:01:11;42.15;;;20.95;;
78324;SDS011;67584;51.400;6.692;2023-04-23T02:03:36;44.40;;;21.83;;
78324;SDS011;67584;51.400;6.692;2023-04-23T02:06:02;45.83;;;20.50;;
78324;SDS011;67584;51.400;6.692;2023-04-23T02:08:29;45.38;;;21.88;;
78324;SDS011;67584;51.400;6.692;2023-04-23T02:10:56;57.40;;;22.52;;
78324;SDS011;67584;51.400;6.692;2023-04-23T02:13:21;40.08;;;20.90;;
78324;SDS011;67584;51.400;6.692;2023-04-23T02:15:47;48.70;;;22.80;;
78324;SDS011;67584;51.400;6.692;2023-04-23T02:18:13;44.33;;;22.65;;
78324;SDS011;67584;51.400;6.692;2023-04-23T02:20:38;42.08;;;21.38;;
78324;SDS011;67584;51.400;6.692;2023-04-23T02:23:08;50.28;;;24.00;;
78324;SDS011;67584;51.400;6.692;2023-04-23T02:25:34;46.35;;;21.73;;
78324;SDS011;67584;51.400;6.692;2023-04-23T02:28:03;45.80;;;22.58;;
78324;SDS011;67584;51.400;6.692;2023-04-23T02:30:31;43.47;;;20.90;;
78324;SDS011;67584;51.400;6.692;2023-04-23T02:32:57;40.28;;;20.77;;
78324;SDS011;67584;51.400;6.692;2023-04-23T02:35:23;46.72;;;21.85;;
78324;SDS011;67584;51.400;6.692;2023-04-23T02:37:51;54.97;;;23.70;;
78324;SDS011;67584;51.400;6.692;2023-04-23T02:40:18;47.42;;;22.33;;
78324;SDS011;67584;51.400;6.692;2023-04-23T02:42:44;43.58;;;22.70;;
78324;SDS011;67584;51.400;6.692;2023-04-23T02:45:10;41.53;;;20.88;;
78324;SDS011;67584;51.400;6.692;2023-04-23T02:47:36;47.72;;;22.13;;
78324;SDS011;67584;51.400;6.692;2023-04-23T02:50:03;42.95;;;21.48;;
78324;SDS011;67584;51.400;6.692;2023-04-23T02:52:30;45.42;;;22.60;;
78324;SDS011;67584;51.400;6.692;2023-04-23T02:54:57;50.92;;;24.08;;
78324;SDS011;67584;51.400;6.692;2023-04-23T02:57:23;43.70;;;23.35;;
78324;SDS011;67584;51.400;6.692;2023-04-23T02:59:49;39.75;;;20.80;;
78324;SDS011;67584;51.400;6.692;2023-04-23T03:02:17;40.17;;;20.17;;
78324;SDS011;67584;51.400;6.692;2023-04-23T03:04:43;42.33;;;21.23;;
78324;SDS011;67584;51.400;6.692;2023-04-23T03:07:09;38.00;;;21.88;;
78324;SDS011;67584;51.400;6.692;2023-04-23T03:09:37;34.85;;;18.75;;
78324;SDS011;67584;51.400;6.692;2023-04-23T03:12:04;35.63;;;19.25;;
78324;SDS011;67584;51.400;6.692;2023-04-23T03:14:29;36.53;;;20.25;;
78324;SDS011;67584;51.400;6.692;2023-04-23T03:16:55;34.50;;;18.27;;
78324;SDS011;67584;51.400;6.692;2023-04-23T03:19:21;34.83;;;18.02;;
78324;SDS011;67584;51.400;6.692;2023-04-23T03:21:47;34.95;;;18.83;;
78324;SDS011;67584;51.400;6.692;2023-04-23T03:24:14;42.55;;;21.73;;
78324;SDS011;67584;51.400;6.692;2023-04-23T03:26:40;37.00;;;19.58;;
78324;SDS011;67584;51.400;6.692;2023-04-23T03:29:06;40.25;;;20.77;;
78324;SDS011;67584;51.400;6.692;2023-04-23T03:31:32;39.50;;;19.88;;
78324;SDS011;67584;51.400;6.692;2023-04-23T03:33:58;31.70;;;18.27;;
78324;SDS011;67584;51.400;6.692;2023-04-23T03:36:30;44.33;;;22.35;;
78324;SDS011;67584;51.400;6.692;2023-04-23T03:38:56;34.22;;;19.38;;
78324;SDS011;67584;51.400;6.692;2023-04-23T03:41:23;37.00;;;20.60;;
78324;SDS011;67584;51.400;6.692;2023-04-23T03:43:48;36.28;;;19.65;;
78324;SDS011;67584;51.400;6.692;2023-04-23T03:46:36;29.65;;;17.77;;
78324;SDS011;67584;51.400;6.692;2023-04-23T03:49:02;34.70;;;19.48;;
78324;SDS011;67584;51.400;6.692;2023-04-23T03:51:27;33.20;;;19.75;;
78324;SDS011;67584;51.400;6.692;2023-04-23T03:53:53;35.45;;;19.15;;
78324;SDS011;67584;51.400;6.692;2023-04-23T03:56:25;38.10;;;20.75;;
78324;SDS011;67584;51.400;6.692;2023-04-23T03:59:03;32.17;;;20.42;;
78324;SDS011;67584;51.400;6.692;2023-04-23T04:01:29;38.13;;;21.65;;
78324;SDS011;67584;51.400;6.692;2023-04-23T04:03:56;37.28;;;20.75;;
78324;SDS011;67584;51.400;6.692;2023-04-23T04:06:22;36.25;;;20.83;;
78324;SDS011;67584;51.400;6.692;2023-04-23T04:08:48;39.75;;;22.67;;
78324;SDS011;67584;51.400;6.692;2023-04-23T04:11:13;41.00;;;22.48;;
78324;SDS011;67584;51.400;6.692;2023-04-23T04:13:40;35.50;;;20.38;;
78324;SDS011;67584;51.400;6.692;2023-04-23T04:16:05;40.95;;;21.67;;
78324;SDS011;67584;51.400;6.692;2023-04-23T04:18:32;42.00;;;22.10;;
78324;SDS011;67584;51.400;6.692;2023-04-23T04:20:58;45.47;;;25.02;;
78324;SDS011;67584;51.400;6.692;2023-04-23T04:23:23;43.13;;;23.92;;
78324;SDS011;67584;51.400;6.692;2023-04-23T04:25:49;40.80;;;22.45;;
78324;SDS011;67584;51.400;6.692;2023-04-23T04:28:15;40.35;;;21.65;;
78324;SDS011;67584;51.400;6.692;2023-04-23T04:30:41;40.20;;;21.42;;
78324;SDS011;67584;51.400;6.692;2023-04-23T04:33:08;35.25;;;20.55;;
78324;SDS011;67584;51.400;6.692;2023-04-23T04:35:33;41.95;;;21.70;;
78324;SDS011;67584;51.400;6.692;2023-04-23T04:37:59;39.22;;;22.10;;
78324;SDS011;67584;51.400;6.692;2023-04-23T04:40:25;37.75;;;20.55;;
78324;SDS011;67584;51.400;6.692;2023-04-23T04:42:52;36.88;;;19.65;;
78324;SDS011;67584;51.400;6.692;2023-04-23T04:45:19;41.78;;;23.27;;
78324;SDS011;67584;51.400;6.692;2023-04-23T04:47:45;41.05;;;22.60;;
78324;SDS011;67584;51.400;6.692;2023-04-23T04:50:10;36.83;;;19.42;;
78324;SDS011;67584;51.400;6.692;2023-04-23T04:52:36;37.58;;;21.38;;
78324;SDS011;67584;51.400;6.692;2023-04-23T04:55:02;38.83;;;21.92;;
78324;SDS011;67584;51.400;6.692;2023-04-23T04:57:29;37.88;;;21.23;;
78324;SDS011;67584;51.400;6.692;2023-04-23T04:59:54;35.22;;;20.17;;
78324;SDS011;67584;51.400;6.692;2023-04-23T05:02:21;35.83;;;20.35;;
78324;SDS011;67584;51.400;6.692;2023-04-23T05:04:47;31.70;;;19.52;;
78324;SDS011;67584;51.400;6.692;2023-04-23T05:07:13;37.10;;;20.42;;
78324;SDS011;67584;51.400;6.692;2023-04-23T05:09:39;27.20;;;16.95;;
78324;SDS011;67584;51.400;6.692;2023-04-23T05:12:05;27.67;;;18.80;;
78324;SDS011;67584;51.400;6.692;2023-04-23T05:14:33;33.00;;;19.73;;
78324;SDS011;67584;51.400;6.692;2023-04-23T05:16:59;33.72;;;19.90;;
78324;SDS011;67584;51.400;6.692;2023-04-23T05:19:24;28.60;;;19.15;;
78324;SDS011;67584;51.400;6.692;2023-04-23T05:21:50;26.98;;;16.88;;
78324;SDS011;67584;51.400;6.692;2023-04-23T05:24:16;26.85;;;16.85;;
78324;SDS011;67584;51.400;6.692;2023-04-23T05:26:41;26.98;;;16.55;;
78324;SDS011;67584;51.400;6.692;2023-04-23T05:29:07;24.67;;;16.60;;
78324;SDS011;67584;51.400;6.692;2023-04-23T05:31:33;23.70;;;16.40;;
78324;SDS011;67584;51.400;6.692;2023-04-23T05:33:58;27.17;;;16.20;;
78324;SDS011;67584;51.400;6.692;2023-04-23T05:36:25;25.08;;;16.45;;
78324;SDS011;67584;51.400;6.692;2023-04-23T05:38:51;25.52;;;15.20;;
78324;SDS011;67584;51.400;6.692;2023-04-23T05:41:17;21.85;;;14.13;;
78324;SDS011;67584;51.400;6.692;2023-04-23T05:43:42;22.95;;;14.88;;
78324;SDS011;67584;51.400;6.692;2023-04-23T05:46:08;24.95;;;15.05;;
78324;SDS011;67584;51.400;6.692;2023-04-23T05:48:34;23.27;;;14.90;;
78324;SDS011;67584;51.400;6.692;2023-04-23T05:50:59;23.55;;;15.18;;
78324;SDS011;67584;51.400;6.692;2023-04-23T05:53:26;26.90;;;17.10;;
78324;SDS011;67584;51.400;6.692;2023-04-23T05:55:52;25.25;;;15.77;;
78324;SDS011;67584;51.400;6.692;2023-04-23T05:58:17;22.35;;;15.18;;
78324;SDS011;67584;51.400;6.692;2023-04-23T06:00:43;25.90;;;15.18;;
78324;SDS011;67584;51.400;6.692;2023-04-23T06:03:09;24.80;;;15.48;;
78324;SDS011;67584;51.400;6.692;2023-04-23T06:05:35;22.80;;;14.50;;
78324;SDS011;67584;51.400;6.692;2023-04-23T06:08:02;24.35;;;16.67;;
78324;SDS011;67584;51.400;6.692;2023-04-23T06:10:28;25.77;;;16.35;;
78324;SDS011;67584;51.400;6.692;2023-04-23T06:12:54;24.55;;;15.13;;
78324;SDS011;67584;51.400;6.692;2023-04-23T06:15:19;21.23;;;14.95;;
78324;SDS011;67584;51.400;6.692;2023-04-23T06:17:46;21.10;;;14.73;;
78324;SDS011;67584;51.400;6.692;2023-04-23T06:20:12;25.02;;;14.80;;
78324;SDS011;67584;51.400;6.692;2023-04-23T06:22:38;22.40;;;13.88;;
78324;SDS011;67584;51.400;6.692;2023-04-23T06:25:04;22.38;;;14.05;;
78324;SDS011;67584;51.400;6.692;2023-04-23T06:27:29;20.80;;;14.50;;
78324;SDS011;67584;51.400;6.692;2023-04-23T06:30:01;20.83;;;12.93;;
78324;SDS011;67584;51.400;6.692;2023-04-23T06:32:27;18.48;;;13.93;;
78324;SDS011;67584;51.400;6.692;2023-04-23T06:34:53;21.25;;;15.40;;
78324;SDS011;67584;51.400;6.692;2023-04-23T06:37:18;21.48;;;15.25;;
78324;SDS011;67584;51.400;6.692;2023-04-23T06:39:44;21.30;;;15.05;;
78324;SDS011;67584;51.400;6.692;2023-04-23T06:42:10;20.70;;;14.00;;
78324;SDS011;67584;51.400;6.692;2023-04-23T06:44:47;20.70;;;13.73;;
78324;SDS011;67584;51.400;6.692;2023-04-23T06:47:13;18.88;;;12.95;;
78324;SDS011;67584;51.400;6.692;2023-04-23T06:49:39;18.98;;;12.80;;
78324;SDS011;67584;51.400;6.692;2023-04-23T06:52:05;18.85;;;13.25;;
78324;SDS011;67584;51.400;6.692;2023-04-23T06:54:30;18.15;;;12.75;;
78324;SDS011;67584;51.400;6.692;2023-04-23T06:56:56;21.08;;;13.02;;
78324;SDS011;67584;51.400;6.692;2023-04-23T06:59:22;21.63;;;14.00;;
78324;SDS011;67584;51.400;6.692;2023-04-23T07:01:51;17.73;;;12.38;;
78324;SDS011;67584;51.400;6.692;2023-04-23T07:04:17;16.50;;;11.52;;
78324;SDS011;67584;51.400;6.692;2023-04-23T07:06:43;19.15;;;12.18;;
78324;SDS011;67584;51.400;6.692;2023-04-23T07:09:08;18.67;;;12.45;;
78324;SDS011;67584;51.400;6.692;2023-04-23T07:11:34;14.95;;;10.35;;
78324;SDS011;67584;51.400;6.692;2023-04-23T07:14:01;17.05;;;11.60;;
78324;SDS011;67584;51.400;6.692;2023-04-23T07:16:27;14.82;;;10.70;;
78324;SDS011;67584;51.400;6.692;2023-04-23T07:18:57;13.70;;;9.85;;
78324;SDS011;67584;51.400;6.692;2023-04-23T07:21:25;13.52;;;9.38;;
78324;SDS011;67584;51.400;6.692;2023-04-23T07:23:52;13.77;;;9.63;;
78324;SDS011;67584;51.400;6.692;2023-04-23T07:26:18;14.95;;;9.55;;
78324;SDS011;67584;51.400;6.692;2023-04-23T07:28:45;13.10;;;9.52;;
78324;SDS011;67584;51.400;6.692;2023-04-23T07:31:12;13.40;;;10.02;;
78324;SDS011;67584;51.400;6.692;2023-04-23T07:33:38;14.02;;;9.50;;
78324;SDS011;67584;51.400;6.692;2023-04-23T07:36:04;11.30;;;9.52;;
78324;SDS011;67584;51.400;6.692;2023-04-23T07:38:30;12.50;;;8.68;;
78324;SDS011;67584;51.400;6.692;2023-04-23T07:40:55;10.95;;;9.20;;
78324;SDS011;67584;51.400;6.692;2023-04-23T07:43:21;11.90;;;8.57;;
78324;SDS011;67584;51.400;6.692;2023-04-23T07:45:47;10.02;;;7.65;;
78324;SDS011;67584;51.400;6.692;2023-04-23T07:48:13;12.68;;;8.27;;
78324;SDS011;67584;51.400;6.692;2023-04-23T07:50:38;10.65;;;7.63;;
78324;SDS011;67584;51.400;6.692;2023-04-23T07:53:04;11.88;;;8.10;;
78324;SDS011;67584;51.400;6.692;2023-04-23T07:55:29;10.30;;;8.23;;
78324;SDS011;67584;51.400;6.692;2023-04-23T07:57:55;10.07;;;7.45;;
78324;SDS011;67584;51.400;6.692;2023-04-23T08:00:21;9.57;;;8.00;;
78324;SDS011;67584;51.400;6.692;2023-04-23T08:02:47;9.70;;;7.32;;
78324;SDS011;67584;51.400;6.692;2023-04-23T08:05:12;11.25;;;7.00;;
78324;SDS011;67584;51.400;6.692;2023-04-23T08:07:38;10.70;;;8.13;;
78324;SDS011;67584;51.400;6.692;2023-04-23T08:10:04;9.65;;;6.55;;
78324;SDS011;67584;51.400;6.692;2023-04-23T08:12:30;9.68;;;5.70;;
78324;SDS011;67584;51.400;6.692;2023-04-23T08:14:59;6.85;;;5.38;;
78324;SDS011;67584;51.400;6.692;2023-04-23T08:17:32;6.85;;;5.40;;
78324;SDS011;67584;51.400;6.692;2023-04-23T08:19:58;8.02;;;5.60;;
78324;SDS011;67584;51.400;6.692;2023-04-23T08:22:23;10.05;;;5.32;;
78324;SDS011;67584;51.400;6.692;2023-04-23T08:24:49;7.05;;;4.82;;
78324;SDS011;67584;51.400;6.692;2023-04-23T08:27:15;7.05;;;5.38;;
78324;SDS011;67584;51.400;6.692;2023-04-23T08:29:41;6.57;;;4.85;;
78324;SDS011;67584;51.400;6.692;2023-04-23T08:32:06;7.85;;;5.30;;
78324;SDS011;67584;51.400;6.692;2023-04-23T08:34:32;6.57;;;5.00;;
78324;SDS011;67584;51.400;6.692;2023-04-23T08:36:58;4.80;;;3.95;;
78324;SDS011;67584;51.400;6.692;2023-04-23T08:39:23;6.35;;;4.97;;
78324;SDS011;67584;51.400;6.692;2023-04-23T08:41:53;6.65;;;5.20;;
78324;SDS011;67584;51.400;6.692;2023-04-23T08:44:23;4.93;;;4.00;;
78324;SDS011;67584;51.400;6.692;2023-04-23T08:46:51;5.82;;;3.78;;
78324;SDS011;67584;51.400;6.692;2023-04-23T08:49:18;4.78;;;3.63;;
78324;SDS011;67584;51.400;6.692;2023-04-23T08:51:48;5.53;;;3.78;;
78324;SDS011;67584;51.400;6.692;2023-04-23T08:54:26;6.20;;;3.75;;
78324;SDS011;67584;51.400;6.692;2023-04-23T08:56:54;5.13;;;3.30;;
78324;SDS011;67584;51.400;6.692;2023-04-23T08:59:24;5.43;;;3.55;;
78324;SDS011;67584;51.400;6.692;2023-04-23T09:01:51;6.50;;;3.17;;
78324;SDS011;67584;51.400;6.692;2023-04-23T09:04:17;5.18;;;3.25;;
78324;SDS011;67584;51.400;6.692;2023-04-23T09:06:44;7.50;;;3.58;;
78324;SDS011;67584;51.400;6.692;2023-04-23T09:09:11;4.68;;;3.22;;
78324;SDS011;67584;51.400;6.692;2023-04-23T09:11:43;5.93;;;4.25;;
78324;SDS011;67584;51.400;6.692;2023-04-23T09:14:09;4.22;;;3.33;;
78324;SDS011;67584;51.400;6.692;2023-04-23T09:16:36;5.05;;;3.38;;
78324;SDS011;67584;51.400;6.692;2023-04-23T09:21:33;8.13;;;3.60;;
78324;SDS011;67584;51.400;6.692;2023-04-23T09:24:03;5.93;;;3.53;;
78324;SDS011;67584;51.400;6.692;2023-04-23T09:26:29;4.25;;;2.83;;
78324;SDS011;67584;51.400;6.692;2023-04-23T09:28:55;4.50;;;3.17;;
78324;SDS011;67584;51.400;6.692;2023-04-23T09:31:22;7.10;;;3.78;;
78324;SDS011;67584;51.400;6.692;2023-04-23T09:33:51;6.85;;;4.32;;
78324;SDS011;67584;51.400;6.692;2023-04-23T09:36:21;10.82;;;3.53;;
78324;SDS011;67584;51.400;6.692;2023-04-23T09:38:48;6.07;;;3.72;;
78324;SDS011;67584;51.400;6.692;2023-04-23T09:41:21;4.38;;;3.50;;
78324;SDS011;67584;51.400;6.692;2023-04-23T09:43:55;3.65;;;2.63;;
78324;SDS011;67584;51.400;6.692;2023-04-23T09:46:31;4.90;;;3.05;;
78324;SDS011;67584;51.400;6.692;2023-04-23T09:49:07;4.90;;;2.90;;
78324;SDS011;67584;51.400;6.692;2023-04-23T09:51:44;5.30;;;2.55;;
78324;SDS011;67584;51.400;6.692;2023-04-23T09:56:37;6.55;;;2.97;;
78324;SDS011;67584;51.400;6.692;2023-04-23T09:59:18;7.97;;;2.90;;
78324;SDS011;67584;51.400;6.692;2023-04-23T10:01:48;8.52;;;3.35;;
78324;SDS011;67584;51.400;6.692;2023-04-23T10:04:23;4.28;;;2.75;;
78324;SDS011;67584;51.400;6.692;2023-04-23T10:06:56;4.88;;;2.65;;
78324;SDS011;67584;51.400;6.692;2023-04-23T10:09:23;5.18;;;2.70;;
78324;SDS011;67584;51.400;6.692;2023-04-23T10:11:54;6.13;;;2.78;;
78324;SDS011;67584;51.400;6.692;2023-04-23T10:14:22;4.00;;;2.80;;
78324;SDS011;67584;51.400;6.692;2023-04-23T10:16:52;3.95;;;2.28;;
78324;SDS011;67584;51.400;6.692;2023-04-23T10:19:25;3.92;;;2.80;;
78324;SDS011;67584;51.400;6.692;2023-04-23T10:21:53;5.07;;;2.83;;
78324;SDS011;67584;51.400;6.692;2023-04-23T10:24:25;4.95;;;2.75;;
78324;SDS011;67584;51.400;6.692;2023-04-23T10:26:58;3.85;;;2.50;;
78324;SDS011;67584;51.400;6.692;2023-04-23T10:29:27;3.67;;;2.67;;
78324;SDS011;67584;51.400;6.692;2023-04-23T10:31:58;3.75;;;2.28;;
78324;SDS011;67584;51.400;6.692;2023-04-23T10:34:27;4.75;;;2.42;;
78324;SDS011;67584;51.400;6.692;2023-04-23T10:36:54;3.67;;;2.35;;
78324;SDS011;67584;51.400;6.692;2023-04-23T10:39:21;4.63;;;2.25;;
78324;SDS011;67584;51.400;6.692;2023-04-23T10:41:49;5.18;;;2.20;;
78324;SDS011;67584;51.400;6.692;2023-04-23T10:44:18;2.90;;;2.10;;
78324;SDS011;67584;51.400;6.692;2023-04-23T10:46:54;4.10;;;2.58;;
78324;SDS011;67584;51.400;6.692;2023-04-23T10:49:28;4.00;;;2.40;;
78324;SDS011;67584;51.400;6.692;2023-04-23T10:54:27;2.92;;;2.08;;
78324;SDS011;67584;51.400;6.692;2023-04-23T10:57:01;3.58;;;2.00;;
78324;SDS011;67584;51.400;6.692;2023-04-23T10:59:29;3.08;;;1.90;;
78324;SDS011;67584;51.400;6.692;2023-04-23T11:01:56;2.88;;;1.50;;
78324;SDS011;67584;51.400;6.692;2023-04-23T11:06:53;3.40;;;2.13;;
78324;SDS011;67584;51.400;6.692;2023-04-23T11:09:36;3.97;;;1.80;;
78324;SDS011;67584;51.400;6.692;2023-04-23T11:12:05;2.25;;;1.52;;
78324;SDS011;67584;51.400;6.692;2023-04-23T11:14:51;5.45;;;2.08;;
78324;SDS011;67584;51.400;6.692;2023-04-23T11:17:22;2.55;;;1.70;;
78324;SDS011;67584;51.400;6.692;2023-04-23T11:22:38;2.67;;;1.50;;
78324;SDS011;67584;51.400;6.692;2023-04-23T11:25:07;3.33;;;1.65;;
78324;SDS011;67584;51.400;6.692;2023-04-23T11:27:43;2.80;;;1.80;;
78324;SDS011;67584;51.400;6.692;2023-04-23T11:30:11;4.18;;;1.65;;
78324;SDS011;67584;51.400;6.692;2023-04-23T11:32:38;3.42;;;1.58;;
78324;SDS011;67584;51.400;6.692;2023-04-23T11:35:05;3.22;;;1.75;;
78324;SDS011;67584;51.400;6.692;2023-04-23T11:37:37;2.97;;;1.50;;
78324;SDS011;67584;51.400;6.692;2023-04-23T11:40:16;5.35;;;2.33;;
78324;SDS011;67584;51.400;6.692;2023-04-23T11:42:44;3.45;;;1.90;;
78324;SDS011;67584;51.400;6.692;2023-04-23T11:47:40;3.72;;;1.80;;
78324;SDS011;67584;51.400;6.692;2023-04-23T11:50:06;4.00;;;1.83;;
78324;SDS011;67584;51.400;6.692;2023-04-23T11:52:32;4.20;;;1.80;;
78324;SDS011;67584;51.400;6.692;2023-04-23T11:55:02;3.42;;;1.52;;
78324;SDS011;67584;51.400;6.692;2023-04-23T11:57:29;3.67;;;1.45;;
78324;SDS011;67584;51.400;6.692;2023-04-23T11:59:58;2.58;;;1.42;;
78324;SDS011;67584;51.400;6.692;2023-04-23T12:02:24;2.42;;;1.35;;
78324;SDS011;67584;51.400;6.692;2023-04-23T12:04:50;2.00;;;1.30;;
78324;SDS011;67584;51.400;6.692;2023-04-23T12:07:15;2.72;;;1.67;;
78324;SDS011;67584;51.400;6.692;2023-04-23T12:09:41;2.63;;;1.60;;
78324;SDS011;67584;51.400;6.692;2023-04-23T12:14:35;2.78;;;1.30;;
78324;SDS011;67584;51.400;6.692;2023-04-23T12:17:07;2.65;;;1.50;;
78324;SDS011;67584;51.400;6.692;2023-04-23T12:19:34;3.28;;;1.50;;
78324;SDS011;67584;51.400;6.692;2023-04-23T12:22:01;3.83;;;1.45;;
78324;SDS011;67584;51.400;6.692;2023-04-23T12:24:28;3.92;;;1.65;;
78324;SDS011;67584;51.400;6.692;2023-04-23T12:26:56;2.95;;;1.55;;
78324;SDS011;67584;51.400;6.692;2023-04-23T12:29:24;4.07;;;1.55;;
78324;SDS011;67584;51.400;6.692;2023-04-23T12:31:51;4.40;;;1.98;;
78324;SDS011;67584;51.400;6.692;2023-04-23T12:34:18;2.70;;;1.52;;
78324;SDS011;67584;51.400;6.692;2023-04-23T12:36:49;3.47;;;1.58;;
78324;SDS011;67584;51.400;6.692;2023-04-23T12:41:56;3.13;;;1.65;;
78324;SDS011;67584;51.400;6.692;2023-04-23T12:44:27;3.30;;;1.60;;
78324;SDS011;67584;51.400;6.692;2023-04-23T12:46:54;4.57;;;2.47;;
78324;SDS011;67584;51.400;6.692;2023-04-23T12:49:25;2.65;;;1.42;;
78324;SDS011;67584;51.400;6.692;2023-04-23T12:51:54;2.05;;;1.60;;
78324;SDS011;67584;51.400;6.692;2023-04-23T12:54:30;3.03;;;1.65;;
78324;SDS011;67584;51.400;6.692;2023-04-23T12:56:58;2.40;;;1.50;;
78324;SDS011;67584;51.400;6.692;2023-04-23T12:59:26;3.33;;;1.65;;
78324;SDS011;67584;51.400;6.692;2023-04-23T13:01:52;2.20;;;1.42;;
78324;SDS011;67584;51.400;6.692;2023-04-23T13:04:18;2.67;;;1.48;;
78324;SDS011;67584;51.400;6.692;2023-04-23T13:06:44;2.15;;;1.58;;
78324;SDS011;67584;51.400;6.692;2023-04-23T13:09:10;2.25;;;1.40;;
78324;SDS011;67584;51.400;6.692;2023-04-23T13:11:37;2.60;;;1.35;;
78324;SDS011;67584;51.400;6.692;2023-04-23T13:14:03;2.53;;;1.60;;
78324;SDS011;67584;51.400;6.692;2023-04-23T13:16:29;6.35;;;2.05;;
78324;SDS011;67584;51.400;6.692;2023-04-23T13:18:55;2.88;;;1.92;;
78324;SDS011;67584;51.400;6.692;2023-04-23T13:21:21;4.15;;;1.40;;
78324;SDS011;67584;51.400;6.692;2023-04-23T13:23:47;2.67;;;1.85;;
78324;SDS011;67584;51.400;6.692;2023-04-23T13:26:12;3.97;;;1.95;;
78324;SDS011;67584;51.400;6.692;2023-04-23T13:28:38;4.03;;;2.00;;
78324;SDS011;67584;51.400;6.692;2023-04-23T13:31:04;2.90;;;1.45;;
78324;SDS011;67584;51.400;6.692;2023-04-23T13:33:30;4.35;;;1.50;;
78324;SDS011;67584;51.400;6.692;2023-04-23T13:35:57;2.28;;;1.40;;
78324;SDS011;67584;51.400;6.692;2023-04-23T13:38:25;3.78;;;1.40;;
78324;SDS011;67584;51.400;6.692;2023-04-23T13:40:51;4.18;;;2.15;;
78324;SDS011;67584;51.400;6.692;2023-04-23T13:43:17;3.03;;;1.58;;
78324;SDS011;67584;51.400;6.692;2023-04-23T13:45:44;2.90;;;1.50;;
78324;SDS011;67584;51.400;6.692;2023-04-23T13:48:10;5.00;;;1.60;;
78324;SDS011;67584;51.400;6.692;2023-04-23T13:50:36;2.63;;;1.83;;
78324;SDS011;67584;51.400;6.692;2023-04-23T13:53:02;3.88;;;1.42;;
78324;SDS011;67584;51.400;6.692;2023-04-23T13:55:28;2.40;;;1.42;;
78324;SDS011;67584;51.400;6.692;2023-04-23T13:57:54;2.58;;;1.50;;
78324;SDS011;67584;51.400;6.692;2023-04-23T14:00:22;5.00;;;1.60;;
78324;SDS011;67584;51.400;6.692;2023-04-23T14:02:49;3.45;;;1.83;;
78324;SDS011;67584;51.400;6.692;2023-04-23T14:05:15;2.13;;;1.40;;
78324;SDS011;67584;51.400;6.692;2023-04-23T14:07:40;5.18;;;1.70;;
78324;SDS011;67584;51.400;6.692;2023-04-23T14:10:06;3.70;;;1.90;;
78324;SDS011;67584;51.400;6.692;2023-04-23T14:12:32;2.78;;;1.50;;
78324;SDS011;67584;51.400;6.692;2023-04-23T14:14:58;2.90;;;1.75;;
78324;SDS011;67584;51.400;6.692;2023-04-23T14:17:26;5.13;;;2.40;;
78324;SDS011;67584;51.400;6.692;2023-04-23T14:22:21;3.47;;;1.40;;
78324;SDS011;67584;51.400;6.692;2023-04-23T14:24:54;4.03;;;2.20;;
78324;SDS011;67584;51.400;6.692;2023-04-23T14:27:25;3.33;;;1.45;;
78324;SDS011;67584;51.400;6.692;2023-04-23T14:32:20;4.35;;;1.90;;
78324;SDS011;67584;51.400;6.692;2023-04-23T14:34:46;4.90;;;2.15;;
78324;SDS011;67584;51.400;6.692;2023-04-23T14:37:11;4.25;;;2.10;;
78324;SDS011;67584;51.400;6.692;2023-04-23T14:39:37;3.53;;;2.33;;
78324;SDS011;67584;51.400;6.692;2023-04-23T14:42:04;3.10;;;2.05;;
78324;SDS011;67584;51.400;6.692;2023-04-23T14:44:30;3.03;;;2.10;;
78324;SDS011;67584;51.400;6.692;2023-04-23T14:46:55;2.33;;;1.60;;
78324;SDS011;67584;51.400;6.692;2023-04-23T14:49:21;2.72;;;1.92;;
78324;SDS011;67584;51.400;6.692;2023-04-23T14:51:49;3.28;;;1.52;;
78324;SDS011;67584;51.400;6.692;2023-04-23T14:54:18;2.80;;;1.67;;
78324;SDS011;67584;51.400;6.692;2023-04-23T14:56:44;2.70;;;1.50;;
78324;SDS011;67584;51.400;6.692;2023-04-23T14:59:10;3.20;;;1.50;;